Skip Navigation Links
NOAA logo - Click to go to the NOAA homepage
NOAA's National Weather Service
Alaska Aviation Weather Unit
  NWS logo - Click to go to the NWS homepage
Left Navbar Graphic     02 AKDT = 10 GMT

   
NOAA is celebrating 200 years of science, service, and stewardship. Visit the NOAA 200th celebration Web site to learn more.
USA.gov is the U.S. Government's official Web portal to all Federal, state and local government Web resources and services.
Facebook
NWS on Facebook

AAWU Home :: Display TAF Add Bookmark
METAR PAMM 270416Z AUTO 09010G14KT 10SM OVC048 06/02 A2957 RMK AO1=

METAR PAMM 270436Z AUTO 09012G18KT 10SM OVC044 06/02 A2957 RMK AO1=

METAR PAMM 270456Z AUTO 08014G19KT 10SM OVC042 06/02 A2957 RMK AO1=

METAR PAMM 270516Z AUTO 08016G21KT 10SM BKN040 OVC050 06/02 A2958 RMK
     AO1=

METAR PAMM 270536Z AUTO 09016G21KT 10SM OVC036 06/02 A2959 RMK AO1=

METAR PAMM 270556Z AUTO 09011G23KT 10SM OVC034 06/02 A2960 RMK AO1 10090
     20060 52017=

METAR PAMM 270616Z AUTO 09013G22KT 060V130 10SM BKN034 BKN042 OVC065
 06/02 A2960 RMK AO1=

METAR PAMM 270636Z AUTO 11010G17KT 10SM BKN032 BKN060 OVC065 06/02
 A2961 RMK AO1=

METAR PAMM 270656Z AUTO 11008KT 10SM BKN030 BKN034 OVC050 06/03
 A2962 RMK AO1=

METAR PAMM 270716Z AUTO 00000KT 10SM BKN028 OVC034 06/03 A2963 RMK
 AO1=

PAMM 270736Z AUTO 00000KT 9SM BKN028 OVC036 06/03 A2963 RMK
     AO1=

METAR PAMM 270756Z AUTO 12004KT 10SM BKN024 OVC034 06/02 A2964 RMK
     AO1=

METAR PAMM 270816Z AUTO 12009G23KT 10SM OVC024 06/03 A2964 RMK AO1
     P0001=

METAR PAMM 270836Z AUTO 13007G18KT 10SM FEW024 BKN037 OVC070 07/02 A2965
     RMK AO1 P0001=

METAR PAMM 270856Z AUTO 12008G16KT 100V160 10SM BKN024 BKN035 OVC070
     07/02 A2965 RMK AO1 P0001 60001 52017=

METAR PAMM 270916Z AUTO 11006KT 050V140 10SM OVC022 07/03 A2965 RMK
     AO1=

METAR PAMM 270936Z AUTO 10005KT 10SM OVC022 07/03 A2966 RMK AO1=

METAR PAMM 270956Z AUTO 09006KT 10SM OVC020 07/03 A2966 RMK AO1=

METAR PAMM 271016Z AUTO 11006KT 10SM BKN020 OVC031 07/03 A2966 RMK
     AO1=


NOAA's National Weather Service
Alaska Aviation Weather Unit
6930 Sand Lake Road
Anchorage, AK 99502-1845
Disclaimer
Credits
Glossary
Privacy Policy
About Us
Career Opportunities
Contact AAWU Internet Services Site last modified: April, 17th 2012